sensor_id;sensor_type;location;lat;lon;timestamp;pressure;altitude;pressure_sealevel;temperature;humidity
61676;BME280;47574;52.090;5.244;2023-02-28T00:01:11;103169.0;;;8.28;48.5
61676;BME280;47574;52.090;5.244;2023-02-28T00:04:24;103168.0;;;8.45;48.19
61676;BME280;47574;52.090;5.244;2023-02-28T00:06:01;103166.00000000001;;;8.56;48.11
61676;BME280;47574;52.090;5.244;2023-02-28T00:07:38;103159.99999999999;;;8.57;47.97
61676;BME280;47574;52.090;5.244;2023-02-28T00:10:50;103159.99999999999;;;8.39;48.66
61676;BME280;47574;52.090;5.244;2023-02-28T00:12:27;103159.99999999999;;;8.55;48.55
61676;BME280;47574;52.090;5.244;2023-02-28T00:14:03;103157.0;;;8.49;48.71
61676;BME280;47574;52.090;5.244;2023-02-28T00:17:15;103167.0;;;8.53;48.73
61676;BME280;47574;52.090;5.244;2023-02-28T00:18:51;103168.0;;;8.52;48.77
61676;BME280;47574;52.090;5.244;2023-02-28T00:20:27;103168.0;;;8.56;48.62
61676;BME280;47574;52.090;5.244;2023-02-28T00:22:03;103172.0;;;8.43;49.12
61676;BME280;47574;52.090;5.244;2023-02-28T00:25:17;103169.0;;;8.73;48.46
61676;BME280;47574;52.090;5.244;2023-02-28T00:26:55;103170.0;;;8.56;48.92
61676;BME280;47574;52.090;5.244;2023-02-28T00:28:32;103170.0;;;8.68;48.65
61676;BME280;47574;52.090;5.244;2023-02-28T00:31:51;103177.0;;;8.99;48.03
61676;BME280;47574;52.090;5.244;2023-02-28T00:33:28;103171.0;;;8.99;48.06
61676;BME280;47574;52.090;5.244;2023-02-28T00:35:05;103169.0;;;8.98;48.16
61676;BME280;47574;52.090;5.244;2023-02-28T00:36:42;103171.0;;;8.94;48.28
61676;BME280;47574;52.090;5.244;2023-02-28T00:39:56;103170.0;;;8.88;48.53
61676;BME280;47574;52.090;5.244;2023-02-28T00:41:32;103170.0;;;8.98;48.3
61676;BME280;47574;52.090;5.244;2023-02-28T00:43:08;103173.0;;;8.93;48.52
61676;BME280;47574;52.090;5.244;2023-02-28T00:46:20;103174.0;;;8.98;48.47
61676;BME280;47574;52.090;5.244;2023-02-28T00:47:57;103174.0;;;8.99;48.54
61676;BME280;47574;52.090;5.244;2023-02-28T00:49:33;103170.0;;;9.03;48.46
61676;BME280;47574;52.090;5.244;2023-02-28T00:52:45;103167.0;;;9.13;48.39
61676;BME280;47574;52.090;5.244;2023-02-28T00:54:23;103166.00000000001;;;9.11;48.37
61676;BME280;47574;52.090;5.244;2023-02-28T00:55:59;103165.00000000001;;;9.22;48.16
61676;BME280;47574;52.090;5.244;2023-02-28T00:57:35;103159.99999999999;;;9.27;48.04
61676;BME280;47574;52.090;5.244;2023-02-28T01:00:49;103159.99999999999;;;9.22;48.27
61676;BME280;47574;52.090;5.244;2023-02-28T01:02:26;103164.00000000001;;;9.31;48.17
61676;BME280;47574;52.090;5.244;2023-02-28T01:04:02;103161.99999999999;;;9.32;48.17
61676;BME280;47574;52.090;5.244;2023-02-28T01:07:14;103163.00000000001;;;9.41;47.99
61676;BME280;47574;52.090;5.244;2023-02-28T01:08:50;103161.99999999999;;;9.41;48.0
61676;BME280;47574;52.090;5.244;2023-02-28T01:10:27;103165.00000000001;;;9.31;48.38
61676;BME280;47574;52.090;5.244;2023-02-28T01:13:40;103167.0;;;9.31;48.33
61676;BME280;47574;52.090;5.244;2023-02-28T01:15:17;103167.0;;;9.34;48.48
61676;BME280;47574;52.090;5.244;2023-02-28T01:16:53;103171.0;;;9.3;48.47
61676;BME280;47574;52.090;5.244;2023-02-28T01:18:30;103167.0;;;9.28;48.63
61676;BME280;47574;52.090;5.244;2023-02-28T01:21:42;103167.0;;;9.38;48.45
61676;BME280;47574;52.090;5.244;2023-02-28T01:23:19;103164.00000000001;;;9.3;48.7
61676;BME280;47574;52.090;5.244;2023-02-28T01:24:56;103165.00000000001;;;9.38;48.67
61676;BME280;47574;52.090;5.244;2023-02-28T01:28:08;103168.0;;;9.25;48.9
61676;BME280;47574;52.090;5.244;2023-02-28T01:29:44;103170.0;;;9.46;48.6
61676;BME280;47574;52.090;5.244;2023-02-28T01:31:21;103159.99999999999;;;9.18;49.23
61676;BME280;47574;52.090;5.244;2023-02-28T01:34:36;103159.99999999999;;;9.15;49.38
61676;BME280;47574;52.090;5.244;2023-02-28T01:36:13;103163.00000000001;;;9.31;49.16
61676;BME280;47574;52.090;5.244;2023-02-28T01:37:51;103158.0;;;9.39;48.97
61676;BME280;47574;52.090;5.244;2023-02-28T01:39:27;103161.99999999999;;;9.52;48.51
61676;BME280;47574;52.090;5.244;2023-02-28T01:42:40;103163.00000000001;;;9.72;48.22
61676;BME280;47574;52.090;5.244;2023-02-28T01:45:23;103161.99999999999;;;9.56;48.45
61676;BME280;47574;52.090;5.244;2023-02-28T01:47:02;103156.0;;;9.61;48.49
61676;BME280;47574;52.090;5.244;2023-02-28T01:48:41;103156.0;;;9.5;48.64
61676;BME280;47574;52.090;5.244;2023-02-28T01:50:21;103153.0;;;9.38;49.05
61676;BME280;47574;52.090;5.244;2023-02-28T01:51:58;103152.0;;;9.51;48.75
61676;BME280;47574;52.090;5.244;2023-02-28T01:55:18;103152.0;;;9.39;48.91
61676;BME280;47574;52.090;5.244;2023-02-28T01:57:01;103151.0;;;9.44;49.0
61676;BME280;47574;52.090;5.244;2023-02-28T01:58:41;103150.0;;;9.48;48.77
61676;BME280;47574;52.090;5.244;2023-02-28T02:00:21;103145.0;;;9.51;48.7
61676;BME280;47574;52.090;5.244;2023-02-28T02:03:36;103145.0;;;9.36;49.11
61676;BME280;47574;52.090;5.244;2023-02-28T02:05:15;103142.0;;;9.43;49.09
61676;BME280;47574;52.090;5.244;2023-02-28T02:06:53;103140.00000000001;;;9.59;48.65
61676;BME280;47574;52.090;5.244;2023-02-28T02:10:14;103133.0;;;9.74;48.3
61676;BME280;47574;52.090;5.244;2023-02-28T02:11:51;103127.0;;;9.63;48.47
61676;BME280;47574;52.090;5.244;2023-02-28T02:13:41;103126.0;;;9.64;48.72
61676;BME280;47574;52.090;5.244;2023-02-28T02:15:32;103128.0;;;9.47;48.91
61676;BME280;47574;52.090;5.244;2023-02-28T02:17:18;103125.0;;;9.64;48.73
61676;BME280;47574;52.090;5.244;2023-02-28T02:21:55;103121.0;;;9.63;48.63
61676;BME280;47574;52.090;5.244;2023-02-28T02:27:20;103122.0;;;9.51;48.93
61676;BME280;47574;52.090;5.244;2023-02-28T02:30:25;103123.0;;;9.66;48.78
61676;BME280;47574;52.090;5.244;2023-02-28T02:33:21;103129.0;;;9.49;48.99
61676;BME280;47574;52.090;5.244;2023-02-28T02:35:28;103131.0;;;9.44;49.25
61676;BME280;47574;52.090;5.244;2023-02-28T02:37:15;103133.0;;;9.55;49.02
61676;BME280;47574;52.090;5.244;2023-02-28T02:39:02;103138.00000000001;;;9.6;48.8
61676;BME280;47574;52.090;5.244;2023-02-28T02:40:44;103134.99999999999;;;9.71;48.67
61676;BME280;47574;52.090;5.244;2023-02-28T02:42:36;103133.99999999999;;;9.52;49.02
61676;BME280;47574;52.090;5.244;2023-02-28T02:44:18;103139.00000000001;;;9.55;49.02
61676;BME280;47574;52.090;5.244;2023-02-28T02:47:41;103136.99999999999;;;9.65;48.71
61676;BME280;47574;52.090;5.244;2023-02-28T02:49:21;103133.99999999999;;;9.85;48.34
61676;BME280;47574;52.090;5.244;2023-02-28T02:51:01;103133.99999999999;;;9.81;48.47
61676;BME280;47574;52.090;5.244;2023-02-28T02:52:53;103136.99999999999;;;9.6;49.1
61676;BME280;47574;52.090;5.244;2023-02-28T02:56:13;103136.99999999999;;;9.73;48.85
61676;BME280;47574;52.090;5.244;2023-02-28T02:57:54;103131.0;;;9.71;48.93
61676;BME280;47574;52.090;5.244;2023-02-28T02:59:35;103133.99999999999;;;9.73;48.91
61676;BME280;47574;52.090;5.244;2023-02-28T03:01:17;103138.00000000001;;;9.81;48.94
61676;BME280;47574;52.090;5.244;2023-02-28T03:04:36;103138.00000000001;;;9.81;48.86
61676;BME280;47574;52.090;5.244;2023-02-28T03:06:18;103140.00000000001;;;9.67;49.08
61676;BME280;47574;52.090;5.244;2023-02-28T03:07:54;103138.00000000001;;;9.71;49.2
61676;BME280;47574;52.090;5.244;2023-02-28T03:09:33;103138.00000000001;;;9.73;49.23
61676;BME280;47574;52.090;5.244;2023-02-28T03:12:56;103139.00000000001;;;9.82;48.88
61676;BME280;47574;52.090;5.244;2023-02-28T03:14:49;103134.99999999999;;;9.89;48.79
61676;BME280;47574;52.090;5.244;2023-02-28T03:16:35;103141.00000000001;;;9.83;49.01
61676;BME280;47574;52.090;5.244;2023-02-28T03:18:22;103133.99999999999;;;9.78;49.19
61676;BME280;47574;52.090;5.244;2023-02-28T03:20:10;103133.0;;;9.98;49.16
61676;BME280;47574;52.090;5.244;2023-02-28T03:23:45;103131.0;;;9.81;49.43
61676;BME280;47574;52.090;5.244;2023-02-28T03:25:31;103133.99999999999;;;9.73;49.92
61676;BME280;47574;52.090;5.244;2023-02-28T03:27:16;103138.00000000001;;;9.91;49.54
61676;BME280;47574;52.090;5.244;2023-02-28T03:29:02;103133.0;;;10.03;49.27
61676;BME280;47574;52.090;5.244;2023-02-28T03:30:47;103133.0;;;10.02;49.06
61676;BME280;47574;52.090;5.244;2023-02-28T03:32:29;103133.0;;;9.91;49.29
61676;BME280;47574;52.090;5.244;2023-02-28T03:35:56;103133.99999999999;;;9.89;49.51
61676;BME280;47574;52.090;5.244;2023-02-28T03:37:38;103136.99999999999;;;9.85;49.57
61676;BME280;47574;52.090;5.244;2023-02-28T03:39:20;103138.00000000001;;;9.98;49.25
61676;BME280;47574;52.090;5.244;2023-02-28T03:41:01;103141.00000000001;;;9.88;49.54
61676;BME280;47574;52.090;5.244;2023-02-28T03:44:25;103138.00000000001;;;9.89;49.59
61676;BME280;47574;52.090;5.244;2023-02-28T03:46:09;103133.99999999999;;;9.99;49.34
61676;BME280;47574;52.090;5.244;2023-02-28T03:47:49;103128.0;;;9.98;49.44
61676;BME280;47574;52.090;5.244;2023-02-28T03:49:31;103136.99999999999;;;9.96;49.29
61676;BME280;47574;52.090;5.244;2023-02-28T03:51:13;103147.0;;;9.6;50.22
61676;BME280;47574;52.090;5.244;2023-02-28T03:54:42;103143.0;;;9.71;49.98
61676;BME280;47574;52.090;5.244;2023-02-28T03:56:22;103143.0;;;9.58;50.46
61676;BME280;47574;52.090;5.244;2023-02-28T03:58:08;103146.0;;;9.75;50.03
61676;BME280;47574;52.090;5.244;2023-02-28T03:59:56;103147.0;;;10.02;49.5
61676;BME280;47574;52.090;5.244;2023-02-28T04:03:16;103148.0;;;9.82;49.75
61676;BME280;47574;52.090;5.244;2023-02-28T04:04:52;103150.0;;;9.89;49.67
61676;BME280;47574;52.090;5.244;2023-02-28T04:06:30;103152.0;;;9.73;50.07
61676;BME280;47574;52.090;5.244;2023-02-28T04:08:08;103153.0;;;9.78;49.78
61676;BME280;47574;52.090;5.244;2023-02-28T04:11:23;103155.0;;;9.68;50.04
61676;BME280;47574;52.090;5.244;2023-02-28T04:13:02;103156.0;;;9.73;49.62
61676;BME280;47574;52.090;5.244;2023-02-28T04:14:38;103151.0;;;9.65;49.62
61676;BME280;47574;52.090;5.244;2023-02-28T04:17:51;103156.0;;;9.65;48.88
61676;BME280;47574;52.090;5.244;2023-02-28T04:19:28;103156.0;;;9.75;48.24
61676;BME280;47574;52.090;5.244;2023-02-28T04:21:04;103155.0;;;9.71;47.97
61676;BME280;47574;52.090;5.244;2023-02-28T04:22:41;103157.0;;;9.73;47.64
61676;BME280;47574;52.090;5.244;2023-02-28T04:25:57;103158.0;;;9.52;47.88
61676;BME280;47574;52.090;5.244;2023-02-28T04:27:32;103152.0;;;9.69;47.7
61676;BME280;47574;52.090;5.244;2023-02-28T04:29:11;103156.0;;;9.76;47.35
61676;BME280;47574;52.090;5.244;2023-02-28T04:32:31;103157.0;;;9.82;46.62
61676;BME280;47574;52.090;5.244;2023-02-28T04:34:07;103163.00000000001;;;9.57;47.13
61676;BME280;47574;52.090;5.244;2023-02-28T04:35:43;103159.99999999999;;;9.67;46.98
61676;BME280;47574;52.090;5.244;2023-02-28T04:37:20;103165.00000000001;;;9.66;46.63
61676;BME280;47574;52.090;5.244;2023-02-28T04:40:33;103164.00000000001;;;9.67;46.27
61676;BME280;47574;52.090;5.244;2023-02-28T04:42:09;103167.0;;;9.65;46.12
61676;BME280;47574;52.090;5.244;2023-02-28T04:43:46;103168.0;;;9.82;45.91
61676;BME280;47574;52.090;5.244;2023-02-28T04:46:58;103169.0;;;9.73;45.63
61676;BME280;47574;52.090;5.244;2023-02-28T04:48:36;103170.0;;;9.6;44.99
61676;BME280;47574;52.090;5.244;2023-02-28T04:50:14;103170.0;;;9.61;45.03
61676;BME280;47574;52.090;5.244;2023-02-28T04:51:50;103167.0;;;9.56;44.89
61676;BME280;47574;52.090;5.244;2023-02-28T04:55:05;103165.00000000001;;;9.38;44.91
61676;BME280;47574;52.090;5.244;2023-02-28T04:56:41;103167.0;;;9.39;45.34
61676;BME280;47574;52.090;5.244;2023-02-28T04:58:18;103170.0;;;9.36;44.56
61676;BME280;47574;52.090;5.244;2023-02-28T05:01:32;103173.0;;;9.72;43.68
61676;BME280;47574;52.090;5.244;2023-02-28T05:03:09;103166.00000000001;;;9.6;44.29
61676;BME280;47574;52.090;5.244;2023-02-28T05:04:45;103165.00000000001;;;9.4;44.54
61676;BME280;47574;52.090;5.244;2023-02-28T05:07:59;103164.00000000001;;;9.35;44.0
61676;BME280;47574;52.090;5.244;2023-02-28T05:09:35;103163.00000000001;;;9.38;43.56
61676;BME280;47574;52.090;5.244;2023-02-28T05:11:16;103167.0;;;9.52;43.46
61676;BME280;47574;52.090;5.244;2023-02-28T05:12:52;103166.00000000001;;;9.46;43.77
61676;BME280;47574;52.090;5.244;2023-02-28T05:16:05;103158.0;;;9.38;43.85
61676;BME280;47574;52.090;5.244;2023-02-28T05:17:42;103156.0;;;9.34;43.66
61676;BME280;47574;52.090;5.244;2023-02-28T05:19:19;103158.0;;;9.39;43.82
61676;BME280;47574;52.090;5.244;2023-02-28T05:22:31;103157.0;;;9.47;43.86
61676;BME280;47574;52.090;5.244;2023-02-28T05:24:10;103166.00000000001;;;9.48;43.91
61676;BME280;47574;52.090;5.244;2023-02-28T05:25:48;103167.0;;;9.6;44.13
61676;BME280;47574;52.090;5.244;2023-02-28T05:27:24;103172.0;;;9.31;44.82
61676;BME280;47574;52.090;5.244;2023-02-28T05:30:36;103174.0;;;9.21;45.46
61676;BME280;47574;52.090;5.244;2023-02-28T05:33:49;103180.0;;;9.02;46.47
61676;BME280;47574;52.090;5.244;2023-02-28T05:37:02;103175.0;;;9.19;46.86
61676;BME280;47574;52.090;5.244;2023-02-28T05:38:39;103175.0;;;8.99;47.4
61676;BME280;47574;52.090;5.244;2023-02-28T05:40:15;103175.0;;;8.85;48.26
61676;BME280;47574;52.090;5.244;2023-02-28T05:43:28;103178.0;;;8.74;49.14
61676;BME280;47574;52.090;5.244;2023-02-28T05:45:05;103177.0;;;8.65;49.5
61676;BME280;47574;52.090;5.244;2023-02-28T05:46:41;103170.0;;;8.73;49.73
61676;BME280;47574;52.090;5.244;2023-02-28T05:49:53;103174.0;;;8.53;50.31
61676;BME280;47574;52.090;5.244;2023-02-28T05:51:30;103177.0;;;8.65;50.27
61676;BME280;47574;52.090;5.244;2023-02-28T05:53:06;103171.0;;;8.55;50.27
61676;BME280;47574;52.090;5.244;2023-02-28T05:54:42;103175.0;;;8.64;50.74
61676;BME280;47574;52.090;5.244;2023-02-28T05:57:54;103174.0;;;8.56;50.61
61676;BME280;47574;52.090;5.244;2023-02-28T05:59:30;103179.0;;;8.47;51.26
61676;BME280;47574;52.090;5.244;2023-02-28T06:01:32;103178.0;;;8.48;51.56
61676;BME280;47574;52.090;5.244;2023-02-28T06:03:09;103175.0;;;8.47;51.55
61676;BME280;47574;52.090;5.244;2023-02-28T06:06:22;103176.0;;;8.25;52.16
61676;BME280;47574;52.090;5.244;2023-02-28T06:07:58;103179.0;;;8.26;52.39
61676;BME280;47574;52.090;5.244;2023-02-28T06:09:34;103181.0;;;8.18;52.08
61676;BME280;47574;52.090;5.244;2023-02-28T06:12:48;103183.0;;;8.13;52.68
61676;BME280;47574;52.090;5.244;2023-02-28T06:14:25;103186.99999999999;;;8.3;52.66
61676;BME280;47574;52.090;5.244;2023-02-28T06:16:01;103188.00000000001;;;8.2;53.04
61676;BME280;47574;52.090;5.244;2023-02-28T06:17:37;103180.0;;;8.34;52.71
61676;BME280;47574;52.090;5.244;2023-02-28T06:20:52;103180.0;;;8.36;52.74
61676;BME280;47574;52.090;5.244;2023-02-28T06:22:28;103179.0;;;8.2;53.17
61676;BME280;47574;52.090;5.244;2023-02-28T06:24:05;103173.0;;;8.23;52.66
61676;BME280;47574;52.090;5.244;2023-02-28T06:27:21;103169.0;;;8.36;52.77
61676;BME280;47574;52.090;5.244;2023-02-28T06:28:57;103176.0;;;8.33;52.87
61676;BME280;47574;52.090;5.244;2023-02-28T06:30:33;103178.0;;;8.03;53.48
61676;BME280;47574;52.090;5.244;2023-02-28T06:33:46;103169.0;;;8.27;53.09
61676;BME280;47574;52.090;5.244;2023-02-28T06:35:22;103168.0;;;8.41;52.9
61676;BME280;47574;52.090;5.244;2023-02-28T06:36:59;103170.0;;;8.44;52.72
61676;BME280;47574;52.090;5.244;2023-02-28T06:38:37;103179.0;;;8.35;52.98
61676;BME280;47574;52.090;5.244;2023-02-28T06:41:51;103169.0;;;8.58;53.19
61676;BME280;47574;52.090;5.244;2023-02-28T06:43:28;103177.0;;;8.63;52.99
61676;BME280;47574;52.090;5.244;2023-02-28T06:45:06;103177.0;;;8.64;52.69
61676;BME280;47574;52.090;5.244;2023-02-28T06:48:21;103173.0;;;8.64;52.91
61676;BME280;47574;52.090;5.244;2023-02-28T06:49:56;103177.0;;;8.48;53.3
61676;BME280;47574;52.090;5.244;2023-02-28T06:51:33;103182.0;;;8.64;53.07
61676;BME280;47574;52.090;5.244;2023-02-28T06:54:45;103182.0;;;8.56;53.13
61676;BME280;47574;52.090;5.244;2023-02-28T06:56:21;103182.0;;;8.77;52.54
61676;BME280;47574;52.090;5.244;2023-02-28T06:57:57;103180.0;;;8.52;52.8
61676;BME280;47574;52.090;5.244;2023-02-28T06:59:35;103181.0;;;8.34;53.42
61676;BME280;47574;52.090;5.244;2023-02-28T07:02:49;103172.0;;;8.58;53.09
61676;BME280;47574;52.090;5.244;2023-02-28T07:04:25;103173.0;;;8.72;52.93
61676;BME280;47574;52.090;5.244;2023-02-28T07:06:01;103177.0;;;8.72;53.0
61676;BME280;47574;52.090;5.244;2023-02-28T07:09:15;103182.0;;;8.5;53.04
61676;BME280;47574;52.090;5.244;2023-02-28T07:10:52;103178.0;;;8.65;52.97
61676;BME280;47574;52.090;5.244;2023-02-28T07:12:29;103178.0;;;8.52;53.3
61676;BME280;47574;52.090;5.244;2023-02-28T07:15:41;103178.0;;;8.64;52.8
61676;BME280;47574;52.090;5.244;2023-02-28T07:17:17;103183.99999999999;;;8.6;53.42
61676;BME280;47574;52.090;5.244;2023-02-28T07:18:53;103192.0;;;8.45;53.54
61676;BME280;47574;52.090;5.244;2023-02-28T07:20:30;103188.00000000001;;;8.73;53.12
61676;BME280;47574;52.090;5.244;2023-02-28T07:23:43;103186.99999999999;;;8.64;53.48
61676;BME280;47574;52.090;5.244;2023-02-28T07:25:20;103184.99999999999;;;8.67;53.01
61676;BME280;47574;52.090;5.244;2023-02-28T07:26:56;103182.0;;;8.55;53.88
61676;BME280;47574;52.090;5.244;2023-02-28T07:30:10;103181.0;;;8.63;53.29
61676;BME280;47574;52.090;5.244;2023-02-28T07:31:46;103186.99999999999;;;8.63;53.68
61676;BME280;47574;52.090;5.244;2023-02-28T07:33:22;103188.00000000001;;;8.76;53.33
61676;BME280;47574;52.090;5.244;2023-02-28T07:36:35;103193.0;;;8.73;53.16
61676;BME280;47574;52.090;5.244;2023-02-28T07:38:11;103191.00000000001;;;8.89;53.32
61676;BME280;47574;52.090;5.244;2023-02-28T07:39:47;103191.00000000001;;;8.84;52.96
61676;BME280;47574;52.090;5.244;2023-02-28T07:41:23;103191.00000000001;;;8.92;52.91
61676;BME280;47574;52.090;5.244;2023-02-28T07:44:36;103183.0;;;8.74;53.49
61676;BME280;47574;52.090;5.244;2023-02-28T07:46:15;103189.00000000001;;;8.92;53.18
61676;BME280;47574;52.090;5.244;2023-02-28T07:47:52;103189.00000000001;;;8.91;53.47
61676;BME280;47574;52.090;5.244;2023-02-28T07:51:05;103192.0;;;9.05;53.24
61676;BME280;47574;52.090;5.244;2023-02-28T07:52:41;103193.0;;;9.07;53.14
61676;BME280;47574;52.090;5.244;2023-02-28T07:54:18;103195.0;;;8.98;53.2
61676;BME280;47574;52.090;5.244;2023-02-28T07:57:32;103200.0;;;8.99;53.33
61676;BME280;47574;52.090;5.244;2023-02-28T07:59:07;103202.0;;;9.05;53.17
61676;BME280;47574;52.090;5.244;2023-02-28T08:00:44;103201.0;;;8.05;54.49
61676;BME280;47574;52.090;5.244;2023-02-28T08:02:20;103204.0;;;7.47;55.73
61676;BME280;47574;52.090;5.244;2023-02-28T08:05:32;103213.00000000001;;;6.97;56.72
61676;BME280;47574;52.090;5.244;2023-02-28T08:07:08;103221.0;;;6.82;58.05
61676;BME280;47574;52.090;5.244;2023-02-28T08:08:44;103199.0;;;7.07;58.48
61676;BME280;47574;52.090;5.244;2023-02-28T08:11:57;103197.0;;;7.4;58.1
61676;BME280;47574;52.090;5.244;2023-02-28T08:13:33;103203.0;;;7.11;58.06
61676;BME280;47574;52.090;5.244;2023-02-28T08:15:10;103217.0;;;6.88;58.41
61676;BME280;47574;52.090;5.244;2023-02-28T08:18:23;103217.0;;;7.2;58.18
61676;BME280;47574;52.090;5.244;2023-02-28T08:20:00;103219.0;;;7.17;58.23
61676;BME280;47574;52.090;5.244;2023-02-28T08:21:36;103223.0;;;7.21;58.26
61676;BME280;47574;52.090;5.244;2023-02-28T08:23:12;103220.0;;;7.17;58.28
61676;BME280;47574;52.090;5.244;2023-02-28T08:26:25;103223.0;;;7.22;58.27
61676;BME280;47574;52.090;5.244;2023-02-28T08:28:01;103228.0;;;7.04;58.44
61676;BME280;47574;52.090;5.244;2023-02-28T08:29:38;103228.0;;;7.23;58.08
61676;BME280;47574;52.090;5.244;2023-02-28T08:32:53;103225.0;;;7.02;57.89
61676;BME280;47574;52.090;5.244;2023-02-28T08:34:29;103221.0;;;7.18;58.11
61676;BME280;47574;52.090;5.244;2023-02-28T08:36:06;103215.00000000001;;;7.79;57.44
61676;BME280;47574;52.090;5.244;2023-02-28T08:39:19;103219.0;;;7.4;57.2
61676;BME280;47574;52.090;5.244;2023-02-28T08:40:57;103217.0;;;7.33;57.34
61676;BME280;47574;52.090;5.244;2023-02-28T08:42:35;103221.0;;;7.16;57.87
61676;BME280;47574;52.090;5.244;2023-02-28T08:44:12;103225.0;;;7.25;57.48
61676;BME280;47574;52.090;5.244;2023-02-28T08:47:27;103225.0;;;7.52;57.2
61676;BME280;47574;52.090;5.244;2023-02-28T08:49:04;103224.0;;;7.4;57.68
61676;BME280;47574;52.090;5.244;2023-02-28T08:50:39;103221.0;;;7.32;56.59
61676;BME280;47574;52.090;5.244;2023-02-28T08:53:53;103225.0;;;7.5;56.89
61676;BME280;47574;52.090;5.244;2023-02-28T08:55:30;103224.0;;;7.63;55.94
61676;BME280;47574;52.090;5.244;2023-02-28T08:57:06;103224.0;;;7.37;55.52
61676;BME280;47574;52.090;5.244;2023-02-28T08:58:43;103222.0;;;7.85;55.46
61676;BME280;47574;52.090;5.244;2023-02-28T09:01:57;103216.00000000001;;;7.52;54.7
61676;BME280;47574;52.090;5.244;2023-02-28T09:03:34;103209.99999999999;;;7.62;54.12
61676;BME280;47574;52.090;5.244;2023-02-28T09:05:10;103214.00000000001;;;7.43;54.23
61676;BME280;47574;52.090;5.244;2023-02-28T09:08:23;103219.0;;;7.55;52.82
61676;BME280;47574;52.090;5.244;2023-02-28T09:09:59;103223.0;;;7.61;52.63
61676;BME280;47574;52.090;5.244;2023-02-28T09:11:36;103226.0;;;7.65;52.02
61676;BME280;47574;52.090;5.244;2023-02-28T09:14:48;103228.0;;;7.5;51.86
61676;BME280;47574;52.090;5.244;2023-02-28T09:16:25;103233.99999999999;;;7.61;51.96
61676;BME280;47574;52.090;5.244;2023-02-28T09:18:01;103230.0;;;7.61;51.14
61676;BME280;47574;52.090;5.244;2023-02-28T09:19:37;103220.0;;;7.88;51.17
61676;BME280;47574;52.090;5.244;2023-02-28T09:22:52;103220.0;;;7.8;50.71
61676;BME280;47574;52.090;5.244;2023-02-28T09:24:28;103221.0;;;8.22;50.2
61676;BME280;47574;52.090;5.244;2023-02-28T09:26:05;103227.0;;;8.19;48.73
61676;BME280;47574;52.090;5.244;2023-02-28T09:29:18;103221.0;;;7.97;49.26
61676;BME280;47574;52.090;5.244;2023-02-28T09:30:54;103222.0;;;7.88;49.38
61676;BME280;47574;52.090;5.244;2023-02-28T09:32:31;103221.0;;;8.91;48.96
61676;BME280;47574;52.090;5.244;2023-02-28T09:35:43;103214.00000000001;;;8.89;47.6
61676;BME280;47574;52.090;5.244;2023-02-28T09:37:19;103220.0;;;8.56;45.77
61676;BME280;47574;52.090;5.244;2023-02-28T09:38:56;103221.0;;;8.67;46.66
61676;BME280;47574;52.090;5.244;2023-02-28T09:42:21;103218.0;;;8.68;45.1
61676;BME280;47574;52.090;5.244;2023-02-28T09:44:07;103223.0;;;8.73;44.69
61676;BME280;47574;52.090;5.244;2023-02-28T09:45:52;103224.0;;;8.89;44.79
61676;BME280;47574;52.090;5.244;2023-02-28T09:47:32;103227.0;;;9.13;44.83
61676;BME280;47574;52.090;5.244;2023-02-28T09:49:14;103227.0;;;9.76;43.33
61676;BME280;47574;52.090;5.244;2023-02-28T09:52:36;103224.0;;;9.73;42.75
61676;BME280;47574;52.090;5.244;2023-02-28T09:54:15;103224.0;;;9.72;40.57
61676;BME280;47574;52.090;5.244;2023-02-28T09:55:55;103221.0;;;9.38;40.43
61676;BME280;47574;52.090;5.244;2023-02-28T09:57:37;103217.0;;;9.53;40.25
61676;BME280;47574;52.090;5.244;2023-02-28T10:01:27;103224.0;;;9.82;39.0
61676;BME280;47574;52.090;5.244;2023-02-28T10:03:24;103225.0;;;10.39;37.93
61676;BME280;47574;52.090;5.244;2023-02-28T10:05:04;103229.0;;;10.61;38.15
61676;BME280;47574;52.090;5.244;2023-02-28T10:06:46;103221.0;;;10.84;36.06
61676;BME280;47574;52.090;5.244;2023-02-28T10:08:25;103222.0;;;10.84;33.99
61676;BME280;47574;52.090;5.244;2023-02-28T10:10:17;103225.0;;;10.67;33.85
61676;BME280;47574;52.090;5.244;2023-02-28T10:12:00;103219.0;;;10.35;32.75
61676;BME280;47574;52.090;5.244;2023-02-28T10:15:29;103224.0;;;10.1;33.1
61676;BME280;47574;52.090;5.244;2023-02-28T10:17:11;103221.0;;;9.73;32.58
61676;BME280;47574;52.090;5.244;2023-02-28T10:18:52;103222.0;;;9.86;34.28
61676;BME280;47574;52.090;5.244;2023-02-28T10:20:38;103217.0;;;9.73;33.0
61676;BME280;47574;52.090;5.244;2023-02-28T10:24:03;103217.0;;;10.22;32.19
61676;BME280;47574;52.090;5.244;2023-02-28T10:25:55;103209.99999999999;;;10.57;32.29
61676;BME280;47574;52.090;5.244;2023-02-28T10:27:34;103205.0;;;10.87;32.68
61676;BME280;47574;52.090;5.244;2023-02-28T10:29:11;103199.0;;;10.79;32.29
61676;BME280;47574;52.090;5.244;2023-02-28T10:30:49;103198.0;;;10.99;32.22
61676;BME280;47574;52.090;5.244;2023-02-28T10:34:07;103197.0;;;10.93;31.35
61676;BME280;47574;52.090;5.244;2023-02-28T10:35:47;103198.0;;;11.17;31.23
61676;BME280;47574;52.090;5.244;2023-02-28T10:37:25;103193.0;;;11.17;30.07
61676;BME280;47574;52.090;5.244;2023-02-28T10:41:12;103192.0;;;11.14;31.49
61676;BME280;47574;52.090;5.244;2023-02-28T10:42:55;103188.00000000001;;;11.3;31.19
61676;BME280;47574;52.090;5.244;2023-02-28T10:44:34;103192.0;;;11.26;31.09
61676;BME280;47574;52.090;5.244;2023-02-28T10:46:14;103192.0;;;11.38;30.82
61676;BME280;47574;52.090;5.244;2023-02-28T10:47:53;103195.0;;;11.5;30.91
61676;BME280;47574;52.090;5.244;2023-02-28T10:51:08;103196.0;;;11.23;31.87
61676;BME280;47574;52.090;5.244;2023-02-28T10:52:46;103190.00000000001;;;11.49;31.26
61676;BME280;47574;52.090;5.244;2023-02-28T10:54:26;103189.00000000001;;;11.61;30.72
61676;BME280;47574;52.090;5.244;2023-02-28T10:56:05;103170.0;;;11.43;30.46
61676;BME280;47574;52.090;5.244;2023-02-28T10:59:28;103190.00000000001;;;11.54;30.71